createdAt,value
2022-11-08T00:01:17.186Z,97864.13
2022-11-08T00:06:36.943Z,97858.31
2022-11-08T00:11:57.018Z,97870.19
2022-11-08T00:16:58.377Z,97870.56
2022-11-08T00:21:59.746Z,97867.88
2022-11-08T00:27:03.988Z,97860.25
2022-11-08T00:32:09.107Z,97866.63
2022-11-08T00:37:11.013Z,97870.13
2022-11-08T00:42:12.777Z,97874.63
2022-11-08T00:47:14.163Z,97872.78
2022-11-08T00:52:15.511Z,97869.28
2022-11-08T00:57:16.857Z,97867.81
2022-11-08T01:02:18.327Z,97864.31
2022-11-08T01:07:19.723Z,97860.63
2022-11-08T01:12:21.069Z,97845.63
2022-11-08T01:17:22.519Z,97844.97
2022-11-08T01:22:23.856Z,97832.84
2022-11-08T01:27:25.206Z,97835.88
2022-11-08T01:32:26.560Z,97834.19
2022-11-08T01:37:27.927Z,97829.88
2022-11-08T01:42:32.764Z,97821.03
2022-11-08T01:47:34.339Z,97817.34
2022-11-08T01:52:40.471Z,97810.34
2022-11-08T01:57:57.311Z,97799.66
2022-11-08T02:03:01.898Z,97795.31
2022-11-08T02:08:26.016Z,97799.38
2022-11-08T02:13:29.449Z,97801.41
2022-11-08T02:18:32.265Z,97796.28
2022-11-08T02:23:51.104Z,97795.44
2022-11-08T02:28:52.525Z,97802.81
2022-11-08T02:33:54.023Z,97794.78
2022-11-08T02:38:57.691Z,97786.78
2022-11-08T02:43:59.038Z,97783.09
2022-11-08T02:49:00.415Z,97785.75
2022-11-08T02:54:01.764Z,97786.78
2022-11-08T02:59:03.178Z,97794.13
2022-11-08T03:04:04.767Z,97789.66
2022-11-08T03:09:06.149Z,97793.31
2022-11-08T03:14:07.510Z,97795.72
2022-11-08T03:19:08.900Z,97796.56
2022-11-08T03:24:11.687Z,97803.53
2022-11-08T03:29:12.946Z,97803.19
2022-11-08T03:34:14.562Z,97806.88
2022-11-08T03:39:15.952Z,97805.97
2022-11-08T03:44:17.364Z,97802.56
2022-11-08T03:49:18.731Z,97805.97
2022-11-08T03:54:20.196Z,97810.28
2022-11-08T03:59:21.540Z,97806.69
2022-11-08T04:04:22.971Z,97806.22
2022-11-08T04:09:24.328Z,97799.88
2022-11-08T04:14:44.565Z,97809.53
2022-11-08T04:20:04.653Z,97805.00
2022-11-08T04:25:06.508Z,97801.16
2022-11-08T04:30:08.435Z,97799.50
2022-11-08T04:35:09.828Z,97797.19
2022-11-08T04:40:11.679Z,97789.56
2022-11-08T04:45:13.166Z,97793.63
2022-11-08T04:50:15.133Z,97799.84
2022-11-08T04:55:16.569Z,97799.09
2022-11-08T05:00:18.156Z,97793.88
2022-11-08T05:05:19.542Z,97786.38
2022-11-08T05:10:20.886Z,97792.28
2022-11-08T05:15:22.227Z,97793.47
2022-11-08T05:20:42.240Z,97802.03
2022-11-08T05:25:45.713Z,97798.34
2022-11-08T05:30:56.814Z,97795.97
2022-11-08T05:36:06.380Z,97798.44
2022-11-08T05:41:13.316Z,97796.78
2022-11-08T05:46:15.452Z,97800.44
2022-11-08T05:51:18.110Z,97808.66
2022-11-08T05:56:19.504Z,97818.66
2022-11-08T06:01:20.895Z,97815.72
2022-11-08T06:06:22.967Z,97821.28
2022-11-08T06:11:26.509Z,97814.91
2022-11-08T06:16:27.863Z,97821.81
2022-11-08T06:21:29.287Z,97817.81
2022-11-08T06:26:30.679Z,97812.13
2022-11-08T06:31:32.061Z,97813.97
2022-11-08T06:36:33.442Z,97807.72
2022-11-08T06:41:35.014Z,97807.38
2022-11-08T06:46:36.364Z,97812.44
2022-11-08T06:51:37.814Z,97804.19
2022-11-08T06:56:39.151Z,97803.25
2022-11-08T07:01:45.327Z,97812.44
2022-11-08T07:06:47.095Z,97805.47
2022-11-08T07:11:48.451Z,97801.72
2022-11-08T07:16:49.936Z,97808.78
2022-11-08T07:21:51.286Z,97801.72
2022-11-08T07:26:52.902Z,97806.34
2022-11-08T07:31:54.586Z,97799.59
2022-11-08T07:36:55.957Z,97806.50
2022-11-08T07:41:57.311Z,97805.38
2022-11-08T07:47:01.422Z,97802.97
2022-11-08T07:52:02.880Z,97809.25
2022-11-08T07:57:04.293Z,97804.78
2022-11-08T08:02:06.420Z,97796.69
2022-11-08T08:07:08.114Z,97797.22
2022-11-08T08:12:09.513Z,97804.50
2022-11-08T08:17:10.861Z,97800.31
2022-11-08T08:22:12.328Z,97799.63
2022-11-08T08:27:13.687Z,97797.25
2022-11-08T08:32:15.052Z,97792.84
2022-11-08T08:37:17.237Z,97786.78
2022-11-08T08:42:18.600Z,97793.09
2022-11-08T08:47:19.972Z,97779.97
2022-11-08T08:52:21.356Z,97786.25
2022-11-08T08:57:22.718Z,97769.06
2022-11-08T09:02:24.100Z,97769.16
2022-11-08T09:07:25.433Z,97767.56
2022-11-08T09:12:27.717Z,97761.22
2022-11-08T09:17:29.758Z,97767.22
2022-11-08T09:22:33.852Z,97771.81
2022-11-08T09:27:35.216Z,97780.09
2022-11-08T09:37:59.989Z,97762.06
2022-11-08T09:43:31.287Z,97754.00
2022-11-08T09:48:41.046Z,97760.03
2022-11-08T09:53:52.721Z,97746.00
2022-11-08T09:59:05.544Z,97754.22
2022-11-08T10:04:15.183Z,97751.53
2022-11-08T10:09:35.441Z,97751.72
2022-11-08T10:14:53.540Z,97755.59
2022-11-08T10:20:20.822Z,97731.38
2022-11-08T10:25:29.339Z,97740.03
2022-11-08T10:30:36.208Z,97730.91
2022-11-08T10:35:46.510Z,97737.28
2022-11-08T10:41:20.333Z,97736.03
2022-11-08T10:46:22.665Z,97724.41
2022-11-08T10:51:24.145Z,97717.75
2022-11-08T10:56:25.576Z,97715.00
2022-11-08T11:01:26.992Z,97717.06
2022-11-08T11:06:33.325Z,97702.94
2022-11-08T11:11:38.884Z,97694.72
2022-11-08T11:16:55.460Z,97691.03
2022-11-08T11:22:03.642Z,97688.78
2022-11-08T11:27:07.461Z,97697.63
2022-11-08T11:32:34.481Z,97688.53
2022-11-08T11:37:44.959Z,97683.59
2022-11-08T11:43:01.730Z,97680.28
2022-11-08T11:48:14.078Z,97675.34
2022-11-08T11:53:18.140Z,97682.34
2022-11-08T11:58:31.896Z,97673.25
2022-11-08T12:03:44.532Z,97672.81
2022-11-08T12:08:54.161Z,97667.44
2022-11-08T12:14:28.591Z,97662.06
2022-11-08T12:19:54.863Z,97645.75
2022-11-08T12:25:03.077Z,97644.53
2022-11-08T12:30:23.534Z,97645.94
2022-11-08T12:35:38.737Z,97635.19
2022-11-08T12:40:54.332Z,97635.94
2022-11-08T12:46:16.358Z,97634.88
2022-11-08T12:51:17.724Z,97634.31
2022-11-08T12:56:28.267Z,97635.94
2022-11-08T13:01:30.652Z,97629.84
2022-11-08T13:06:50.359Z,97622.97
2022-11-08T13:12:37.116Z,97612.75
2022-11-08T13:17:38.521Z,97615.63
2022-11-08T13:22:44.261Z,97605.97
2022-11-08T13:27:48.238Z,97610.06
2022-11-08T13:33:26.621Z,97607.47
2022-11-08T13:39:12.400Z,97596.16
2022-11-08T13:44:52.097Z,97593.59
2022-11-08T13:50:13.577Z,97599.53
2022-11-08T13:55:43.554Z,97584.91
2022-11-08T14:00:46.360Z,97589.19
2022-11-08T14:05:49.089Z,97601.66
2022-11-08T14:11:02.509Z,97580.19
2022-11-08T14:16:12.647Z,97583.50
2022-11-08T14:21:19.259Z,97594.69
2022-11-08T14:26:23.568Z,97581.09
2022-11-08T14:31:31.237Z,97584.00
2022-11-08T14:36:32.695Z,97587.34
2022-11-08T14:41:34.218Z,97598.13
2022-11-08T14:46:39.449Z,97585.19
2022-11-08T14:51:42.244Z,97584.16
2022-11-08T14:56:45.032Z,97587.06
2022-11-08T15:01:49.265Z,97580.06
2022-11-08T15:06:56.402Z,97581.94
2022-11-08T15:12:02.342Z,97576.78
2022-11-08T15:17:04.132Z,97585.47
2022-11-08T15:22:24.427Z,97571.84
2022-11-08T15:27:26.773Z,97580.47
2022-11-08T15:32:35.094Z,97580.25
2022-11-08T15:37:38.929Z,97578.00
2022-11-08T15:42:44.692Z,97564.38
2022-11-08T15:47:48.023Z,97558.00
2022-11-08T15:52:52.033Z,97558.63
2022-11-08T15:57:54.631Z,97560.25
2022-11-08T16:02:56.318Z,97556.75
2022-11-08T16:07:58.334Z,97561.53
2022-11-08T16:13:00.864Z,97561.28
2022-11-08T16:18:02.573Z,97554.91
2022-11-08T16:23:07.235Z,97547.47
2022-11-08T16:28:19.170Z,97542.91
2022-11-08T16:33:23.838Z,97537.31
2022-11-08T16:38:28.788Z,97538.13
2022-11-08T16:43:30.631Z,97533.81
2022-11-08T16:48:32.576Z,97540.97
2022-11-08T16:53:36.595Z,97537.88
2022-11-08T16:58:38.101Z,97549.03
2022-11-08T17:03:39.999Z,97541.84
2022-11-08T17:08:41.446Z,97551.09
2022-11-08T17:13:43.034Z,97549.00
2022-11-08T17:18:48.567Z,97550.66
2022-11-08T17:23:52.834Z,97545.06
2022-11-08T17:28:57.612Z,97550.59
2022-11-08T17:33:58.992Z,97552.25
2022-11-08T17:39:01.005Z,97546.03
2022-11-08T17:44:02.409Z,97559.19
2022-11-08T17:49:04.061Z,97554.44
2022-11-08T17:54:05.551Z,97546.81
2022-11-08T17:59:06.969Z,97559.97
2022-11-08T18:04:10.291Z,97555.41
2022-11-08T18:09:11.746Z,97558.66
2022-11-08T18:14:15.331Z,97554.13
2022-11-08T18:19:17.194Z,97544.22
2022-11-08T18:24:18.594Z,97550.84
2022-11-08T18:29:20.116Z,97552.50
2022-11-08T18:34:21.598Z,97544.94
2022-11-08T18:39:23.005Z,97541.94
2022-11-08T18:44:24.382Z,97544.22
2022-11-08T18:49:25.748Z,97539.28
2022-11-08T18:54:27.176Z,97540.94
2022-11-08T18:59:28.936Z,97537.03
2022-11-08T19:04:30.305Z,97535.19
2022-11-08T19:09:31.703Z,97530.22
2022-11-08T19:14:35.237Z,97531.69
2022-11-08T19:19:39.509Z,97536.88
2022-11-08T19:24:40.955Z,97530.50
2022-11-08T19:29:42.724Z,97538.34
2022-11-08T19:34:46.908Z,97530.13
2022-11-08T19:39:48.844Z,97533.41
2022-11-08T19:44:50.338Z,97540.00
2022-11-08T19:49:51.909Z,97544.19
2022-11-08T19:54:54.248Z,97545.22
2022-11-08T19:59:55.799Z,97540.84
2022-11-08T20:04:57.263Z,97542.91
2022-11-08T20:09:58.669Z,97547.44
2022-11-08T20:15:00.073Z,97541.69
2022-11-08T20:20:02.122Z,97546.03
2022-11-08T20:25:03.606Z,97546.66
2022-11-08T20:30:05.610Z,97543.91
2022-11-08T20:35:08.638Z,97549.06
2022-11-08T20:40:10.667Z,97546.97
2022-11-08T20:45:14.948Z,97557.91
2022-11-08T20:50:16.738Z,97544.50
2022-11-08T20:55:18.129Z,97537.50
2022-11-08T21:00:32.828Z,97551.50
2022-11-08T21:05:40.937Z,97550.69
2022-11-08T21:10:45.214Z,97539.59
2022-11-08T21:15:47.939Z,97543.91
2022-11-08T21:20:50.708Z,97540.00
2022-11-08T21:25:52.323Z,97544.31
2022-11-08T21:30:54.757Z,97533.59
2022-11-08T21:35:56.889Z,97537.56
2022-11-08T21:41:05.817Z,97539.63
2022-11-08T21:46:22.238Z,97530.78
2022-11-08T22:03:34.895Z,97527.31
2022-11-08T22:09:48.231Z,97526.28
2022-11-08T22:15:03.580Z,97512.06
2022-11-08T22:20:10.260Z,97522.97
2022-11-08T22:25:11.746Z,97518.25
2022-11-08T22:30:16.663Z,97505.47
2022-11-08T22:35:18.376Z,97510.84
2022-11-08T22:40:19.781Z,97510.84
2022-11-08T22:45:21.155Z,97512.88
2022-11-08T22:50:22.585Z,97517.00
2022-11-08T22:55:24.935Z,97514.53
2022-11-08T23:00:28.330Z,97517.81
2022-11-08T23:05:30.913Z,97507.72
2022-11-08T23:10:32.230Z,97502.16
2022-11-08T23:15:34.699Z,97512.66
2022-11-08T23:20:54.567Z,97508.78
2022-11-08T23:25:56.020Z,97507.50
2022-11-08T23:31:20.697Z,97502.16
2022-11-08T23:36:22.833Z,97509.59
2022-11-08T23:41:42.857Z,97498.25
2022-11-08T23:46:44.308Z,97496.41
2022-11-08T23:51:45.757Z,97504.22
2022-11-08T23:56:47.517Z,97491.66
